Time;durP1;ratioP1;P1;durP2;ratioP2;P2;SDS_P1;SDS_P2;PMS_P1;PMS_P2;Temp;Humidity;BMP_temperature;BMP_pressure;BME280_temperature;BME280_humidity;BME280_pressure;Samples;Min_cycle;Max_cycle;Signal;HPM_P1;HPM_P2
2021/06/19 00:01:00;;;;;;;;;;;24.60;98.80;;;;;;5079702;28;19961;-83
2021/06/19 00:03:27;;;;;;;;;;;24.50;99.00;;;;;;5079612;28;19989;-84
2021/06/19 00:05:54;;;;;;;;;;;24.50;99.20;;;;;;5079740;28;19968;-84
2021/06/19 00:08:23;;;;;;;;;;;24.50;99.40;;;;;;5078880;28;20369;-82
2021/06/19 00:10:49;;;;;;;;;;;24.50;99.60;;;;;;5079546;28;20321;-83
2021/06/19 00:13:16;;;;;;;;;;;24.40;99.80;;;;;;5080837;28;19968;-82
2021/06/19 00:15:42;;;;;;;;;;;24.40;99.90;;;;;;5079574;28;19948;-83
2021/06/19 00:18:09;;;;;;;;;;;24.40;99.90;;;;;;5079673;28;19949;-83
2021/06/19 00:20:36;;;;;;;;;;;24.40;99.90;;;;;;5084221;28;19959;-82
2021/06/19 00:23:03;;;;;;;;;;;24.40;99.90;;;;;;5084600;28;19967;-82
2021/06/19 00:25:30;;;;;;;;;;;24.50;99.90;;;;;;5081996;28;19966;-85
2021/06/19 00:27:56;;;;;;;;;;;24.40;99.90;;;;;;5085087;28;19963;-86
2021/06/19 00:30:23;;;;;;;;;;;24.30;99.90;;;;;;5089253;28;20412;-85
2021/06/19 00:32:50;;;;;;;;;;;24.30;99.90;;;;;;5091012;28;20370;-86
2021/06/19 00:35:17;;;;;;;;;;;24.30;99.90;;;;;;5090985;28;19942;-86
2021/06/19 00:37:47;;;;;;;;;;;24.30;99.90;;;;;;5085281;28;20025;-84
2021/06/19 00:40:14;;;;;;;;;;;24.20;99.90;;;;;;5082118;28;20001;-84
2021/06/19 00:42:41;;;;;;;;;;;24.20;99.90;;;;;;5081910;28;19948;-84
2021/06/19 00:45:08;;;;;;;;;;;24.20;99.90;;;;;;5096025;28;19940;-84
2021/06/19 00:47:37;;;;;;;;;;;24.20;99.90;;;;;;5080760;28;20305;-84
2021/06/19 00:50:05;;;;;;;;;;;24.10;99.90;;;;;;5080507;28;19964;-84
2021/06/19 00:52:31;;;;;;;;;;;24.00;99.90;;;;;;5079728;28;19947;-84
2021/06/19 00:54:59;;;;;;;;;;;24.00;99.90;;;;;;5086847;28;19947;-83
2021/06/19 00:57:25;;;;;;;;;;;24.00;99.90;;;;;;5092214;28;19947;-83
2021/06/19 00:59:52;;;;;;;;;;;23.90;99.90;;;;;;5092224;28;19946;-83
2021/06/19 01:02:18;;;;;;;;;;;23.90;99.90;;;;;;5093658;28;19967;-83
2021/06/19 01:04:45;;;;;;;;;;;23.90;99.90;;;;;;5095332;28;19937;-83
2021/06/19 01:07:11;;;;;;;;;;;23.90;99.90;;;;;;5095782;28;19980;-83
2021/06/19 01:09:38;;;;;;;;;;;23.90;99.90;;;;;;5095852;28;19950;-83
2021/06/19 01:12:06;;;;;;;;;;;23.90;99.90;;;;;;5095590;28;20054;-84
2021/06/19 01:14:33;;;;;;;;;;;23.90;99.90;;;;;;5095556;28;19942;-83
2021/06/19 01:16:59;;;;;;;;;;;23.90;99.90;;;;;;5094535;28;19953;-83
2021/06/19 01:19:26;;;;;;;;;;;23.80;99.90;;;;;;5094186;28;19968;-83
2021/06/19 01:21:52;;;;;;;;;;;23.70;99.90;;;;;;5094514;28;20045;-83
2021/06/19 01:24:21;;;;;;;;;;;23.70;99.90;;;;;;5093752;28;19999;-84
2021/06/19 01:26:50;;;;;;;;;;;23.70;99.90;;;;;;5081553;28;19953;-84
2021/06/19 01:29:16;;;;;;;;;;;23.70;99.90;;;;;;5079558;28;19963;-84
2021/06/19 01:31:43;;;;;;;;;;;23.70;99.90;;;;;;5079943;28;19983;-84
2021/06/19 01:34:09;;;;;;;;;;;23.60;99.90;;;;;;5079477;28;20056;-84
2021/06/19 01:36:36;;;;;;;;;;;23.60;99.90;;;;;;5079795;28;19994;-84
2021/06/19 01:39:03;;;;;;;;;;;23.70;99.90;;;;;;5078211;28;19941;-84
2021/06/19 01:41:32;;;;;;;;;;;23.70;99.90;;;;;;5078327;28;19979;-84
2021/06/19 01:44:01;;;;;;;;;;;23.70;99.90;;;;;;5079625;28;19992;-84
2021/06/19 01:46:28;;;;;;;;;;;23.70;99.90;;;;;;5078702;28;19990;-83
2021/06/19 01:48:54;;;;;;;;;;;23.70;99.90;;;;;;5079484;28;19938;-84
2021/06/19 01:51:21;;;;;;;;;;;23.60;99.90;;;;;;5080386;28;19964;-84
2021/06/19 01:53:47;;;;;;;;;;;23.60;99.90;;;;;;5082803;28;20326;-83
2021/06/19 01:56:14;;;;;;;;;;;23.60;99.90;;;;;;5080804;28;19944;-83
2021/06/19 01:58:41;;;;;;;;;;;23.50;99.90;;;;;;5079019;28;19946;-84
2021/06/19 02:01:11;;;;;;;;;;;23.50;99.90;;;;;;5079380;28;19958;-83
2021/06/19 02:03:38;;;;;;;;;;;23.50;99.90;;;;;;5078953;28;19948;-84
2021/06/19 02:06:06;;;;;;;;;;;23.40;99.90;;;;;;5083447;28;19939;-83
2021/06/19 02:08:33;;;;;;;;;;;23.30;99.90;;;;;;5079076;28;19960;-83
2021/06/19 02:11:00;;;;;;;;;;;23.30;99.90;;;;;;5092945;28;19970;-83
2021/06/19 02:13:27;;;;;;;;;;;23.30;99.90;;;;;;5084431;28;20071;-83
2021/06/19 02:15:54;;;;;;;;;;;23.30;99.90;;;;;;5078926;28;19942;-84
2021/06/19 02:18:22;;;;;;;;;;;23.30;99.90;;;;;;5076234;28;20010;-83
2021/06/19 02:20:52;;;;;;;;;;;23.30;99.90;;;;;;5075408;28;20021;-83
2021/06/19 02:23:19;;;;;;;;;;;23.10;99.90;;;;;;5075619;28;19942;-83
2021/06/19 02:25:47;;;;;;;;;;;23.30;99.90;;;;;;5075301;28;20305;-83
2021/06/19 02:28:14;;;;;;;;;;;23.20;99.90;;;;;;5075086;28;19955;-84
2021/06/19 02:30:41;;;;;;;;;;;23.20;99.90;;;;;;5074741;28;19958;-83
2021/06/19 02:33:08;;;;;;;;;;;23.20;99.90;;;;;;5076020;28;19947;-83
2021/06/19 02:35:36;;;;;;;;;;;23.10;99.90;;;;;;5076820;28;20322;-84
2021/06/19 02:38:03;;;;;;;;;;;23.10;99.90;;;;;;5077686;28;20413;-85
2021/06/19 02:40:30;;;;;;;;;;;23.10;99.90;;;;;;5077528;28;19962;-84
2021/06/19 02:42:56;;;;;;;;;;;23.10;99.90;;;;;;5077951;28;20003;-83
2021/06/19 02:45:23;;;;;;;;;;;23.10;99.90;;;;;;5078179;28;20001;-84
2021/06/19 02:47:51;;;;;;;;;;;23.10;99.90;;;;;;5077753;28;20004;-84
2021/06/19 02:50:18;;;;;;;;;;;23.00;99.90;;;;;;5086670;28;19963;-85
2021/06/19 02:52:46;;;;;;;;;;;23.00;99.90;;;;;;5097277;28;19924;-83
2021/06/19 02:55:13;;;;;;;;;;;23.10;99.90;;;;;;5097248;28;19945;-84
2021/06/19 02:57:40;;;;;;;;;;;23.20;99.90;;;;;;5097597;28;19950;-85
2021/06/19 03:00:08;;;;;;;;;;;23.20;99.90;;;;;;5097776;28;19986;-84
2021/06/19 03:02:34;;;;;;;;;;;23.20;99.90;;;;;;5097462;28;19936;-85
2021/06/19 03:05:01;;;;;;;;;;;23.20;99.90;;;;;;5098896;28;19942;-84
2021/06/19 03:07:27;;;;;;;;;;;23.20;99.90;;;;;;5101064;28;19952;-85
2021/06/19 03:09:55;;;;;;;;;;;23.20;99.90;;;;;;5100323;28;19930;-84
2021/06/19 03:12:22;;;;;;;;;;;23.10;99.90;;;;;;5100563;28;19950;-83
2021/06/19 03:14:48;;;;;;;;;;;23.00;99.90;;;;;;5099103;28;19930;-84
2021/06/19 03:17:15;;;;;;;;;;;22.90;99.90;;;;;;5088338;28;19946;-84
2021/06/19 03:19:42;;;;;;;;;;;22.90;99.90;;;;;;5084192;28;19944;-85
2021/06/19 03:22:08;;;;;;;;;;;22.90;99.90;;;;;;5082434;28;19945;-84
2021/06/19 03:24:37;;;;;;;;;;;23.00;99.90;;;;;;5082605;28;19944;-84
2021/06/19 03:27:05;;;;;;;;;;;22.90;99.90;;;;;;5083550;28;20005;-83
2021/06/19 03:29:32;;;;;;;;;;;22.80;99.90;;;;;;5082380;28;20300;-83
2021/06/19 03:31:58;;;;;;;;;;;22.80;99.90;;;;;;5082297;28;20411;-84
2021/06/19 03:34:25;;;;;;;;;;;22.90;99.90;;;;;;5081631;28;20405;-84
2021/06/19 03:36:52;;;;;;;;;;;23.00;99.90;;;;;;5082444;28;19944;-84
2021/06/19 03:39:19;;;;;;;;;;;23.00;99.90;;;;;;5082713;28;19944;-84
2021/06/19 03:41:45;;;;;;;;;;;23.00;99.90;;;;;;5082111;28;19958;-84
2021/06/19 03:44:13;;;;;;;;;;;22.90;99.90;;;;;;5082339;28;20452;-84
2021/06/19 03:46:40;;;;;;;;;;;22.90;99.90;;;;;;5081839;28;19941;-84
2021/06/19 03:49:06;;;;;;;;;;;22.90;99.90;;;;;;5081328;28;19993;-83
2021/06/19 03:51:33;;;;;;;;;;;23.00;99.90;;;;;;5081402;28;19970;-84
2021/06/19 03:53:59;;;;;;;;;;;23.00;99.90;;;;;;5081420;28;19952;-84
2021/06/19 03:56:27;;;;;;;;;;;23.00;99.90;;;;;;5080652;28;19941;-84
2021/06/19 03:58:53;;;;;;;;;;;23.00;99.90;;;;;;5080481;28;19944;-84
2021/06/19 04:01:21;;;;;;;;;;;23.00;99.90;;;;;;5081356;28;20366;-84
2021/06/19 04:03:47;;;;;;;;;;;23.00;99.90;;;;;;5081773;28;20347;-84
2021/06/19 04:06:14;;;;;;;;;;;23.10;99.90;;;;;;5081674;28;19940;-84
2021/06/19 04:08:40;;;;;;;;;;;23.10;99.90;;;;;;5081360;28;20002;-84
2021/06/19 04:11:07;;;;;;;;;;;23.20;99.90;;;;;;5081267;28;19961;-85
2021/06/19 04:13:33;;;;;;;;;;;23.20;99.90;;;;;;5081048;28;19946;-84
2021/06/19 04:16:00;;;;;;;;;;;23.20;99.90;;;;;;5081377;28;19944;-84
2021/06/19 04:18:27;;;;;;;;;;;23.20;99.90;;;;;;5081862;28;19974;-84
2021/06/19 04:20:54;;;;;;;;;;;23.20;99.90;;;;;;5081575;28;20381;-84
2021/06/19 04:23:20;;;;;;;;;;;23.30;99.90;;;;;;5093223;28;19953;-83
2021/06/19 04:25:47;;;;;;;;;;;23.30;99.90;;;;;;5083168;28;20418;-84
2021/06/19 04:28:13;;;;;;;;;;;23.30;99.90;;;;;;5080587;28;20431;-84
2021/06/19 04:30:40;;;;;;;;;;;23.30;99.90;;;;;;5083411;28;20256;-84
2021/06/19 04:33:06;;;;;;;;;;;23.30;99.90;;;;;;5081293;28;20430;-85
2021/06/19 04:35:34;;;;;;;;;;;23.30;99.90;;;;;;5079999;28;20471;-84
2021/06/19 04:38:00;;;;;;;;;;;23.30;99.90;;;;;;5080516;28;19993;-84
2021/06/19 04:40:32;;;;;;;;;;;23.30;99.90;;;;;;5081029;28;20025;-84
2021/06/19 04:43:02;;;;;;;;;;;23.40;99.90;;;;;;5081405;28;20310;-84
2021/06/19 04:45:29;;;;;;;;;;;23.40;99.90;;;;;;5081806;28;19941;-84
2021/06/19 04:47:56;;;;;;;;;;;23.50;99.90;;;;;;5085621;28;19951;-84
2021/06/19 04:50:22;;;;;;;;;;;23.50;99.90;;;;;;5081444;28;19971;-84
2021/06/19 04:52:50;;;;;;;;;;;23.50;99.90;;;;;;5078875;28;19942;-84
2021/06/19 04:55:18;;;;;;;;;;;23.50;99.90;;;;;;5080286;28;20004;-84
2021/06/19 04:57:48;;;;;;;;;;;23.50;99.90;;;;;;5079708;28;19949;-84
2021/06/19 05:00:15;;;;;;;;;;;23.60;99.90;;;;;;5085665;28;19966;-83
2021/06/19 05:02:42;;;;;;;;;;;23.60;99.90;;;;;;5091866;28;19945;-84
2021/06/19 05:05:09;;;;;;;;;;;23.60;99.90;;;;;;5092371;28;19944;-83
2021/06/19 05:07:35;;;;;;;;;;;23.60;99.90;;;;;;5092615;28;19982;-83
2021/06/19 05:10:05;;;;;;;;;;;23.70;99.90;;;;;;5086284;28;19963;-84
2021/06/19 05:12:32;;;;;;;;;;;23.70;99.90;;;;;;5089611;28;19940;-83
2021/06/19 05:14:58;;;;;;;;;;;23.70;99.90;;;;;;5085888;28;20020;-85
2021/06/19 05:17:25;;;;;;;;;;;23.80;99.90;;;;;;5079753;28;20014;-84
2021/06/19 05:19:51;;;;;;;;;;;23.90;99.90;;;;;;5079802;28;20003;-85
2021/06/19 05:22:17;;;;;;;;;;;23.90;99.90;;;;;;5080235;28;19943;-85
2021/06/19 05:24:44;;;;;;;;;;;23.90;99.90;;;;;;5080416;28;19970;-85
2021/06/19 05:27:12;;;;;;;;;;;24.00;99.90;;;;;;5079645;28;19996;-85
2021/06/19 05:29:38;;;;;;;;;;;24.10;99.90;;;;;;5080169;28;19959;-86
2021/06/19 05:32:05;;;;;;;;;;;24.10;99.90;;;;;;5080357;28;19980;-86
2021/06/19 05:34:32;;;;;;;;;;;24.20;99.90;;;;;;5079645;28;19942;-84
2021/06/19 05:36:58;;;;;;;;;;;24.20;99.90;;;;;;5079532;28;20360;-85
2021/06/19 05:39:24;;;;;;;;;;;24.30;99.90;;;;;;5084540;28;20313;-84
2021/06/19 05:41:51;;;;;;;;;;;24.30;99.90;;;;;;5081836;28;19958;-85
2021/06/19 05:44:19;;;;;;;;;;;24.40;99.90;;;;;;5081498;28;19941;-84
2021/06/19 05:46:45;;;;;;;;;;;24.50;99.90;;;;;;5080845;28;20424;-84
2021/06/19 05:49:12;;;;;;;;;;;24.60;99.90;;;;;;5080539;28;19955;-84
2021/06/19 05:51:38;;;;;;;;;;;24.60;99.90;;;;;;5080950;28;19964;-84
2021/06/19 05:54:05;;;;;;;;;;;24.70;99.90;;;;;;5080083;28;19971;-85
2021/06/19 05:56:31;;;;;;;;;;;24.80;99.90;;;;;;5079803;28;20354;-85
2021/06/19 05:58:58;;;;;;;;;;;24.90;99.90;;;;;;5079992;28;19947;-85
2021/06/19 06:01:26;;;;;;;;;;;24.90;99.90;;;;;;5079869;28;19995;-85
2021/06/19 06:03:52;;;;;;;;;;;25.00;99.90;;;;;;5079720;28;19947;-85
2021/06/19 06:06:19;;;;;;;;;;;25.00;99.90;;;;;;5088892;28;19947;-82
2021/06/19 06:08:45;;;;;;;;;;;25.10;99.90;;;;;;5095200;28;19950;-83
2021/06/19 06:11:12;;;;;;;;;;;25.20;99.90;;;;;;5095385;28;20027;-83
2021/06/19 06:13:38;;;;;;;;;;;25.30;99.90;;;;;;5095190;28;19946;-84
2021/06/19 06:16:05;;;;;;;;;;;25.30;99.90;;;;;;5081623;28;19945;-83
2021/06/19 06:18:33;;;;;;;;;;;25.30;99.90;;;;;;5083113;28;20362;-83
2021/06/19 06:21:00;;;;;;;;;;;25.40;99.90;;;;;;5081456;28;19961;-84
2021/06/19 06:23:26;;;;;;;;;;;25.50;99.90;;;;;;5080697;28;19995;-83
2021/06/19 06:25:53;;;;;;;;;;;25.50;99.90;;;;;;5079262;28;19982;-85
2021/06/19 06:28:20;;;;;;;;;;;25.60;99.90;;;;;;5079735;28;19959;-84
2021/06/19 06:30:48;;;;;;;;;;;25.70;99.90;;;;;;5079147;28;19961;-84
2021/06/19 06:33:14;;;;;;;;;;;25.70;99.90;;;;;;5090174;28;19939;-81
2021/06/19 06:35:42;;;;;;;;;;;25.80;99.90;;;;;;5094890;28;19941;-83
2021/06/19 06:38:08;;;;;;;;;;;25.80;99.90;;;;;;5092409;28;19942;-83
2021/06/19 06:40:35;;;;;;;;;;;25.80;99.90;;;;;;5095401;28;19960;-83
2021/06/19 06:43:03;;;;;;;;;;;25.90;99.90;;;;;;5095335;28;19943;-83
2021/06/19 06:45:29;;;;;;;;;;;25.90;99.90;;;;;;5097500;28;19943;-83
2021/06/19 06:47:57;;;;;;;;;;;26.00;99.90;;;;;;5097529;28;19944;-83
2021/06/19 06:50:25;;;;;;;;;;;26.10;99.90;;;;;;5097716;28;19999;-83
2021/06/19 06:52:53;;;;;;;;;;;26.10;99.90;;;;;;5098164;28;19937;-85
2021/06/19 06:55:19;;;;;;;;;;;26.20;99.90;;;;;;5097148;28;19927;-84
2021/06/19 06:57:46;;;;;;;;;;;26.30;99.90;;;;;;5098052;28;19942;-84
2021/06/19 07:00:13;;;;;;;;;;;26.30;99.90;;;;;;5098303;28;19955;-84
2021/06/19 07:02:40;;;;;;;;;;;26.40;99.90;;;;;;5101714;28;19959;-81
2021/06/19 07:05:07;;;;;;;;;;;26.40;99.90;;;;;;5099062;28;19946;-84
2021/06/19 07:07:33;;;;;;;;;;;26.40;99.90;;;;;;5097591;28;19948;-84
2021/06/19 07:10:01;;;;;;;;;;;26.50;99.90;;;;;;5091218;28;19960;-83
2021/06/19 07:12:27;;;;;;;;;;;26.60;99.90;;;;;;5084877;28;19941;-85
2021/06/19 07:14:54;;;;;;;;;;;26.60;99.90;;;;;;5084332;28;19950;-85
2021/06/19 07:17:20;;;;;;;;;;;26.60;99.90;;;;;;5087106;28;19943;-82
2021/06/19 07:19:47;;;;;;;;;;;26.70;99.90;;;;;;5093733;28;19942;-85
2021/06/19 07:22:13;;;;;;;;;;;26.80;99.90;;;;;;5093574;28;19946;-83
2021/06/19 07:24:40;;;;;;;;;;;26.90;99.90;;;;;;5093453;28;19937;-84
2021/06/19 07:27:08;;;;;;;;;;;26.90;99.90;;;;;;5085305;28;19945;-84
2021/06/19 07:29:35;;;;;;;;;;;27.00;99.90;;;;;;5083165;28;19965;-85
2021/06/19 07:32:01;;;;;;;;;;;27.10;99.90;;;;;;5082452;28;19964;-84
2021/06/19 07:34:29;;;;;;;;;;;27.10;99.90;;;;;;5082799;28;19941;-84
2021/06/19 07:36:56;;;;;;;;;;;27.20;99.90;;;;;;5083206;28;19941;-84
2021/06/19 07:39:22;;;;;;;;;;;27.30;99.90;;;;;;5082415;28;19950;-84
2021/06/19 07:41:49;;;;;;;;;;;27.30;99.90;;;;;;5082692;28;20390;-84
2021/06/19 07:44:16;;;;;;;;;;;27.40;99.90;;;;;;5082272;28;20385;-84
2021/06/19 07:46:46;;;;;;;;;;;27.40;99.90;;;;;;5082157;28;19949;-84
2021/06/19 07:49:12;;;;;;;;;;;27.50;99.90;;;;;;5082200;28;20069;-84
2021/06/19 07:51:39;;;;;;;;;;;27.60;99.90;;;;;;5081655;28;20014;-84
2021/06/19 07:54:06;;;;;;;;;;;27.70;99.90;;;;;;5086842;28;19941;-83
2021/06/19 07:56:32;;;;;;;;;;;27.70;99.90;;;;;;5093558;28;19939;-83
2021/06/19 07:58:59;;;;;;;;;;;27.80;99.90;;;;;;5087109;28;20347;-84
2021/06/19 08:01:27;;;;;;;;;;;27.80;99.90;;;;;;5083351;28;19989;-84
2021/06/19 08:03:54;;;;;;;;;;;27.90;99.90;;;;;;5083007;28;20039;-84
2021/06/19 08:06:21;;;;;;;;;;;28.00;99.90;;;;;;5082327;28;19948;-84
2021/06/19 08:08:47;;;;;;;;;;;28.00;99.90;;;;;;5084880;28;19958;-83
2021/06/19 08:11:14;;;;;;;;;;;28.10;99.90;;;;;;5081745;28;20456;-84
2021/06/19 08:13:41;;;;;;;;;;;28.20;99.90;;;;;;5082044;28;19970;-84
2021/06/19 08:16:10;;;;;;;;;;;28.30;99.90;;;;;;5084443;28;19943;-84
2021/06/19 08:18:38;;;;;;;;;;;28.30;99.90;;;;;;5084613;28;19939;-84
2021/06/19 08:21:04;;;;;;;;;;;28.40;99.90;;;;;;5086513;28;19960;-84
2021/06/19 08:23:31;;;;;;;;;;;28.40;99.90;;;;;;5086473;28;19948;-83
2021/06/19 08:25:58;;;;;;;;;;;28.50;99.90;;;;;;5085977;28;19951;-84
2021/06/19 08:28:24;;;;;;;;;;;28.60;99.90;;;;;;5089665;28;19942;-84
2021/06/19 08:30:51;;;;;;;;;;;28.60;99.90;;;;;;5081333;28;19969;-84
2021/06/19 08:33:17;;;;;;;;;;;28.70;99.90;;;;;;5082301;28;19990;-84
2021/06/19 08:35:45;;;;;;;;;;;28.70;99.90;;;;;;5082569;28;20334;-84
2021/06/19 08:38:11;;;;;;;;;;;28.80;99.90;;;;;;5081571;28;20345;-84
2021/06/19 08:40:38;;;;;;;;;;;28.80;99.90;;;;;;5080099;28;20061;-84
2021/06/19 08:43:05;;;;;;;;;;;28.80;99.90;;;;;;5080619;28;19991;-84
2021/06/19 08:45:32;;;;;;;;;;;28.90;99.90;;;;;;5081885;28;19941;-84
2021/06/19 08:47:59;;;;;;;;;;;28.90;99.90;;;;;;5080599;28;20001;-84
2021/06/19 08:50:26;;;;;;;;;;;28.90;99.90;;;;;;5081033;28;19960;-84
2021/06/19 08:52:54;;;;;;;;;;;28.90;99.90;;;;;;5080906;28;19997;-84
2021/06/19 08:55:20;;;;;;;;;;;29.00;99.90;;;;;;5083015;28;19945;-85
2021/06/19 08:57:47;;;;;;;;;;;29.00;99.90;;;;;;5081092;28;19946;-85
2021/06/19 09:00:16;;;;;;;;;;;29.00;99.90;;;;;;5081074;28;20169;-85
2021/06/19 09:02:43;;;;;;;;;;;29.10;99.90;;;;;;5079590;28;19948;-86
2021/06/19 09:05:12;;;;;;;;;;;29.10;99.90;;;;;;5078557;28;19940;-86
2021/06/19 09:07:45;;;;;;;;;;;29.20;99.90;;;;;;5081197;28;20045;-86
2021/06/19 09:10:20;;;;;;;;;;;29.30;99.90;;;;;;5078362;28;20056;-85
2021/06/19 09:13:10;;;;;;;;;;;29.30;99.90;;;;;;5097158;28;19925;-83
2021/06/19 09:15:38;;;;;;;;;;;29.40;99.90;;;;;;5062809;28;19946;-85
2021/06/19 09:18:20;;;;;;;;;;;29.40;99.90;;;;;;5078473;28;20314;-85
2021/06/19 09:20:52;;;;;;;;;;;29.50;99.90;;;;;;5074905;28;19956;-83
2021/06/19 09:23:20;;;;;;;;;;;29.60;99.90;;;;;;5079224;28;19962;-84
2021/06/19 09:25:56;;;;;;;;;;;29.60;99.90;;;;;;5081361;28;19940;-84
2021/06/19 09:28:23;;;;;;;;;;;29.70;99.90;;;;;;5086512;28;20286;-84
2021/06/19 09:30:49;;;;;;;;;;;29.90;99.90;;;;;;5096729;28;19986;-85
2021/06/19 09:33:18;;;;;;;;;;;30.00;99.90;;;;;;5093093;28;19949;-86
2021/06/19 09:35:45;;;;;;;;;;;30.10;99.90;;;;;;5090025;28;19950;-86
2021/06/19 09:38:12;;;;;;;;;;;30.10;99.90;;;;;;5088303;28;19968;-85
2021/06/19 09:40:39;;;;;;;;;;;30.20;99.90;;;;;;5087636;28;20429;-85
2021/06/19 09:43:08;;;;;;;;;;;30.20;99.90;;;;;;5086983;28;19940;-85
2021/06/19 09:45:35;;;;;;;;;;;30.20;99.90;;;;;;5086659;28;19973;-86
2021/06/19 09:48:02;;;;;;;;;;;30.20;99.90;;;;;;5086557;28;19939;-85
2021/06/19 09:50:28;;;;;;;;;;;30.30;99.40;;;;;;5083939;28;20008;-85
2021/06/19 09:52:55;;;;;;;;;;;30.50;98.10;;;;;;5080685;28;20408;-85
2021/06/19 09:55:21;;;;;;;;;;;30.70;97.60;;;;;;5079495;28;19939;-83
2021/06/19 09:57:49;;;;;;;;;;;30.70;98.30;;;;;;5079802;28;19945;-86
2021/06/19 10:00:17;;;;;;;;;;;30.80;98.70;;;;;;5079455;28;20008;-84
2021/06/19 10:02:44;;;;;;;;;;;30.80;97.90;;;;;;5078226;28;19941;-86
2021/06/19 10:05:11;;;;;;;;;;;30.90;96.70;;;;;;5078300;28;19942;-85
2021/06/19 10:07:38;;;;;;;;;;;31.10;95.10;;;;;;5079259;28;19995;-84
2021/06/19 10:10:05;;;;;;;;;;;31.30;93.90;;;;;;5103143;22;20016;-83
2021/06/19 10:12:33;;;;;;;;;;;31.40;94.30;;;;;;5079655;28;19956;-79
2021/06/19 10:15:04;;;;;;;;;;;31.30;95.40;;;;;;5085842;28;20046;-87
2021/06/19 10:17:33;;;;;;;;;;;31.30;95.80;;;;;;5085900;28;20362;-82
2021/06/19 10:20:01;;;;;;;;;;;31.20;95.90;;;;;;5084482;28;19940;-83
2021/06/19 10:22:28;;;;;;;;;;;31.20;95.80;;;;;;5065909;28;19935;-84
2021/06/19 10:24:56;;;;;;;;;;;31.20;95.70;;;;;;5064122;28;20464;-83
2021/06/19 10:27:24;;;;;;;;;;;31.20;95.30;;;;;;5066285;28;19992;-83
2021/06/19 10:29:51;;;;;;;;;;;31.20;93.20;;;;;;5064554;28;20391;-83
2021/06/19 10:32:32;;;;;;;;;;;31.20;94.80;;;;;;5063650;28;19959;-83
2021/06/19 10:35:00;;;;;;;;;;;31.30;95.10;;;;;;5063233;28;20398;-83
2021/06/19 10:37:29;;;;;;;;;;;31.30;92.40;;;;;;5076224;28;19953;-83
2021/06/19 10:39:55;;;;;;;;;;;31.40;93.30;;;;;;5076658;28;19940;-83
2021/06/19 10:42:27;;;;;;;;;;;31.50;94.20;;;;;;5062757;28;19961;-84
2021/06/19 10:44:55;;;;;;;;;;;31.50;93.90;;;;;;5063022;28;19946;-84
2021/06/19 10:47:23;;;;;;;;;;;31.50;94.40;;;;;;5065016;28;19948;-84
2021/06/19 10:49:50;;;;;;;;;;;31.50;93.70;;;;;;5064770;28;20418;-83
2021/06/19 10:52:32;;;;;;;;;;;31.50;92.80;;;;;;5068334;28;19956;-83
2021/06/19 10:55:17;;;;;;;;;;;31.70;92.80;;;;;;5070822;28;19944;-83
2021/06/19 10:57:44;;;;;;;;;;;31.80;90.80;;;;;;5074598;28;19944;-81
2021/06/19 11:00:24;;;;;;;;;;;32.00;90.00;;;;;;5066493;28;19949;-82
2021/06/19 11:02:51;;;;;;;;;;;32.10;90.40;;;;;;5069879;28;19944;-83
2021/06/19 11:05:32;;;;;;;;;;;32.20;90.60;;;;;;5067570;28;19936;-82
2021/06/19 11:08:00;;;;;;;;;;;32.20;91.50;;;;;;5070655;28;20025;-83
2021/06/19 11:10:45;;;;;;;;;;;32.20;89.60;;;;;;5069916;28;20020;-83
2021/06/19 11:13:27;;;;;;;;;;;32.30;90.00;;;;;;5068239;28;19942;-83
2021/06/19 11:15:53;;;;;;;;;;;32.50;88.70;;;;;;5066163;28;19960;-83
2021/06/19 11:18:35;;;;;;;;;;;32.50;89.20;;;;;;5066186;28;19942;-83
2021/06/19 11:21:08;;;;;;;;;;;32.50;90.60;;;;;;5070947;28;20009;-83
2021/06/19 11:23:50;;;;;;;;;;;32.50;90.70;;;;;;5068129;28;19936;-82
2021/06/19 11:26:31;;;;;;;;;;;32.40;90.90;;;;;;5063982;28;19938;-83
2021/06/19 11:29:19;;;;;;;;;;;32.50;90.10;;;;;;5063991;28;19942;-83
2021/06/19 11:31:48;;;;;;;;;;;32.70;90.20;;;;;;5064324;28;19981;-82
2021/06/19 11:34:36;;;;;;;;;;;32.80;87.30;;;;;;5065625;28;19941;-82
2021/06/19 11:37:02;;;;;;;;;;;32.80;86.10;;;;;;5064731;28;19941;-82
2021/06/19 11:39:33;;;;;;;;;;;32.80;86.70;;;;;;5065977;28;19938;-83
2021/06/19 11:41:59;;;;;;;;;;;32.80;86.50;;;;;;5066953;28;19957;-83
2021/06/19 11:44:33;;;;;;;;;;;32.80;87.80;;;;;;5067125;28;19944;-83
2021/06/19 11:47:07;;;;;;;;;;;32.80;88.60;;;;;;5066633;28;19939;-84
2021/06/19 11:49:35;;;;;;;;;;;32.80;90.10;;;;;;5066502;28;19945;-84
2021/06/19 11:52:05;;;;;;;;;;;32.90;88.50;;;;;;5066817;28;20005;-82
2021/06/19 11:54:32;;;;;;;;;;;33.00;86.60;;;;;;5067454;28;20344;-84
2021/06/19 11:56:58;;;;;;;;;;;33.10;87.40;;;;;;5065648;28;20411;-82
2021/06/19 11:59:27;;;;;;;;;;;33.10;89.60;;;;;;5064452;28;19948;-83
2021/06/19 12:01:54;;;;;;;;;;;33.10;88.40;;;;;;5063757;28;19971;-82
2021/06/19 12:04:22;;;;;;;;;;;32.90;89.80;;;;;;5065097;28;19953;-83
2021/06/19 12:06:50;;;;;;;;;;;32.90;85.00;;;;;;5065553;28;19949;-83
2021/06/19 12:09:17;;;;;;;;;;;32.80;88.40;;;;;;5064034;28;19945;-83
2021/06/19 12:11:44;;;;;;;;;;;32.70;89.30;;;;;;5065327;28;19968;-83
2021/06/19 12:14:18;;;;;;;;;;;32.70;87.80;;;;;;5066067;28;19943;-83
2021/06/19 12:16:45;;;;;;;;;;;32.70;85.90;;;;;;5065429;28;19944;-83
2021/06/19 12:19:15;;;;;;;;;;;32.80;86.30;;;;;;5064437;28;19951;-83
2021/06/19 12:21:42;;;;;;;;;;;32.80;86.30;;;;;;5064434;28;20335;-83
2021/06/19 12:24:28;;;;;;;;;;;32.90;83.30;;;;;;5066017;28;20420;-82
2021/06/19 12:27:14;;;;;;;;;;;33.10;81.60;;;;;;5074819;28;19943;-82
2021/06/19 12:29:45;;;;;;;;;;;33.30;80.40;;;;;;5074000;28;20301;-82
2021/06/19 12:32:33;;;;;;;;;;;33.40;82.50;;;;;;5068311;28;20036;-82
2021/06/19 12:35:03;;;;;;;;;;;33.40;84.40;;;;;;5075485;28;19948;-81
2021/06/19 12:37:30;;;;;;;;;;;33.40;81.70;;;;;;5079173;28;19942;-82
2021/06/19 12:39:57;;;;;;;;;;;33.50;81.00;;;;;;5071483;28;19941;-82
2021/06/19 12:42:33;;;;;;;;;;;33.60;80.70;;;;;;5075164;28;20027;-82
2021/06/19 12:45:03;;;;;;;;;;;33.70;80.60;;;;;;5064071;28;19997;-83
2021/06/19 12:47:35;;;;;;;;;;;33.70;85.20;;;;;;5062218;28;19995;-81
2021/06/19 12:50:03;;;;;;;;;;;33.50;78.70;;;;;;5062308;28;19957;-82
2021/06/19 12:52:30;;;;;;;;;;;33.50;80.80;;;;;;5062379;28;19951;-82
2021/06/19 12:55:09;;;;;;;;;;;33.50;77.30;;;;;;5063213;28;19991;-82
2021/06/19 12:57:36;;;;;;;;;;;33.40;76.70;;;;;;5062994;28;19946;-82
2021/06/19 13:00:03;;;;;;;;;;;33.30;81.50;;;;;;5063900;28;19968;-82
2021/06/19 13:02:30;;;;;;;;;;;33.30;83.70;;;;;;5064050;28;19949;-83
2021/06/19 13:04:56;;;;;;;;;;;33.10;82.20;;;;;;5063531;28;19965;-83
2021/06/19 13:07:30;;;;;;;;;;;33.10;83.60;;;;;;5068115;28;19946;-82
2021/06/19 13:09:56;;;;;;;;;;;33.00;83.60;;;;;;5072019;28;19929;-83
2021/06/19 13:12:23;;;;;;;;;;;33.10;82.80;;;;;;5072820;28;19962;-83
2021/06/19 13:15:04;;;;;;;;;;;33.10;83.40;;;;;;5073726;28;19946;-83
2021/06/19 13:17:30;;;;;;;;;;;33.40;84.80;;;;;;5068946;28;19946;-83
2021/06/19 13:19:58;;;;;;;;;;;33.60;85.20;;;;;;5062530;28;19942;-83
2021/06/19 13:22:26;;;;;;;;;;;33.60;82.90;;;;;;5061938;28;19958;-83
2021/06/19 13:24:57;;;;;;;;;;;33.80;80.30;;;;;;5061795;28;19945;-83
2021/06/19 13:27:24;;;;;;;;;;;33.90;82.50;;;;;;5061462;28;19935;-84
2021/06/19 13:29:56;;;;;;;;;;;33.90;80.80;;;;;;5062305;28;19940;-83
2021/06/19 13:32:22;;;;;;;;;;;34.00;79.00;;;;;;5065308;28;20021;-84
2021/06/19 13:34:51;;;;;;;;;;;33.80;80.20;;;;;;5067034;28;19941;-84
2021/06/19 13:37:18;;;;;;;;;;;33.70;81.70;;;;;;5067030;28;20029;-84
2021/06/19 13:39:49;;;;;;;;;;;33.60;80.70;;;;;;5063685;28;19947;-84
2021/06/19 13:42:17;;;;;;;;;;;33.30;82.40;;;;;;5073364;28;19981;-83
2021/06/19 13:44:55;;;;;;;;;;;33.10;82.90;;;;;;5065573;28;20422;-83
2021/06/19 13:47:22;;;;;;;;;;;33.10;83.50;;;;;;5062726;28;19978;-83
2021/06/19 13:49:48;;;;;;;;;;;33.00;83.70;;;;;;5062011;28;19988;-83
2021/06/19 13:52:16;;;;;;;;;;;33.10;83.70;;;;;;5062738;28;19964;-83
2021/06/19 13:54:44;;;;;;;;;;;33.30;83.70;;;;;;5061944;28;19944;-83
2021/06/19 13:57:13;;;;;;;;;;;33.60;83.50;;;;;;5063633;28;20027;-83
2021/06/19 13:59:39;;;;;;;;;;;33.60;79.90;;;;;;5064639;28;19966;-83
2021/06/19 14:02:06;;;;;;;;;;;33.80;82.70;;;;;;5062644;28;19958;-83
2021/06/19 14:04:33;;;;;;;;;;;33.90;82.90;;;;;;5061603;28;19977;-84
2021/06/19 14:07:01;;;;;;;;;;;33.90;81.40;;;;;;5062907;28;19939;-82
2021/06/19 14:09:29;;;;;;;;;;;33.90;82.50;;;;;;5064229;28;19991;-84
2021/06/19 14:11:55;;;;;;;;;;;33.90;84.30;;;;;;5062296;28;19967;-83
2021/06/19 14:14:23;;;;;;;;;;;33.90;84.50;;;;;;5067096;28;19945;-83
2021/06/19 14:16:50;;;;;;;;;;;33.80;82.00;;;;;;5069897;28;19994;-83
2021/06/19 14:19:16;;;;;;;;;;;33.90;82.80;;;;;;5062078;28;19947;-83
2021/06/19 14:21:43;;;;;;;;;;;33.80;82.30;;;;;;5061590;28;20008;-84